Terminal Aerodrome Forecast
Issued by NWS

Home | Current Version | Previous Version | Text Only | Print | Product List | Glossary On
Versions: 1 2 3 4 5 6 7 8 9 10 11 12 13
000
FTUS42 KTAE 281120
TAFECP
TAF
KECP 281120Z 2812/2912 30003KT P6SM SKC
     FM281500 33007KT P6SM SCT040
     FM282100 25010KT P6SM SCT050=

USA.gov is the U.S. government's official web portal to all federal, state and local government web resources and services.